Time;durP1;ratioP1;P1;durP2;ratioP2;P2;SDS_P1;SDS_P2;PMS_P1;PMS_P2;Temp;Humidity;BMP_temperature;BMP_pressure;BME280_temperature;BME280_humidity;BME280_pressure;Samples;Min_cycle;Max_cycle;Signal;HPM_P1;HPM_P2
2022/02/28 00:00:40;;;;;;;10.07;6.33;;;;;;;-0.08;83.04;99519.88;5113471;28;20215;-68
2022/02/28 00:03:06;;;;;;;8.77;5.90;;;;;;;-0.08;81.89;99524.22;5113505;28;20239;-69
2022/02/28 00:05:33;;;;;;;10.40;7.00;;;;;;;-0.06;82.33;99522.44;5113369;28;20243;-69
2022/02/28 00:08:01;;;;;;;12.67;8.20;;;;;;;-0.09;82.49;99521.59;5107278;28;20215;-69
2022/02/28 00:10:28;;;;;;;8.67;6.53;;;;;;;-0.11;82.14;99518.16;5113066;28;20243;-69
2022/02/28 00:12:54;;;;;;;7.60;6.13;;;;;;;-0.14;82.86;99506.94;5113370;28;20214;-69
2022/02/28 00:15:21;;;;;;;10.07;6.77;;;;;;;-0.22;82.93;99520.78;5113241;28;20207;-68
2022/02/28 00:17:49;;;;;;;7.90;5.97;;;;;;;-0.25;83.24;99524.28;5111249;28;20207;-69
2022/02/28 00:20:17;;;;;;;9.43;6.27;;;;;;;-0.22;82.49;99519.06;5113114;28;20668;-68
2022/02/28 00:22:44;;;;;;;7.87;6.00;;;;;;;-0.22;83.07;99521.66;5113439;28;20593;-68
2022/02/28 00:25:13;;;;;;;10.60;6.47;;;;;;;-0.25;83.11;99513.91;5113256;28;20546;-67
2022/02/28 00:27:40;;;;;;;8.33;6.33;;;;;;;-0.24;83.09;99511.31;5112940;28;20607;-68
2022/02/28 00:30:09;;;;;;;9.17;6.23;;;;;;;-0.28;82.86;99519.09;5112975;28;20682;-68
2022/02/28 00:32:36;;;;;;;10.07;6.47;;;;;;;-0.34;82.93;99513.94;5112816;28;20210;-68
2022/02/28 00:35:03;;;;;;;8.83;6.23;;;;;;;-0.30;83.16;99516.53;5112845;28;20299;-68
2022/02/28 00:37:29;;;;;;;9.20;5.87;;;;;;;-0.26;82.75;99518.22;5106609;28;20216;-68
2022/02/28 00:39:56;;;;;;;9.30;6.43;;;;;;;-0.34;82.64;99514.81;5113124;28;20214;-67
2022/02/28 00:42:24;;;;;;;10.47;6.37;;;;;;;-0.34;83.08;99519.13;5112867;28;20222;-67
2022/02/28 00:44:51;;;;;;;10.63;6.90;;;;;;;-0.41;83.30;99513.09;5111135;28;20238;-68
2022/02/28 00:47:17;;;;;;;12.90;7.33;;;;;;;-0.45;84.35;99515.72;5113037;28;20209;-68
2022/02/28 00:49:44;;;;;;;10.07;5.97;;;;;;;-0.40;84.01;99511.34;5115422;28;20221;-69
2022/02/28 00:52:11;;;;;;;9.40;6.73;;;;;;;-0.28;82.67;99510.44;5117079;28;20216;-69
2022/02/28 00:54:38;;;;;;;11.37;6.97;;;;;;;-0.38;83.17;99507.88;5116870;28;20223;-69
2022/02/28 00:57:05;;;;;;;7.63;5.73;;;;;;;-0.34;83.17;99504.41;5116933;28;20218;-68
2022/02/28 00:59:33;;;;;;;9.00;6.63;;;;;;;-0.38;83.62;99504.44;5116839;28;20226;-68
2022/02/28 01:01:59;;;;;;;9.20;6.60;;;;;;;-0.32;82.98;99507.00;5116538;28;20215;-69
2022/02/28 01:04:26;;;;;;;7.33;6.00;;;;;;;-0.41;83.50;99512.22;5116736;28;20236;-67
2022/02/28 01:06:52;;;;;;;8.73;6.40;;;;;;;-0.49;83.71;99508.81;5116786;28;20216;-67
2022/02/28 01:09:19;;;;;;;11.63;6.63;;;;;;;-0.58;84.95;99509.69;5115871;28;20272;-67
2022/02/28 01:11:46;;;;;;;8.07;6.40;;;;;;;-0.66;85.13;99515.78;5115830;28;20238;-68
2022/02/28 01:14:12;;;;;;;10.73;6.13;;;;;;;-0.68;85.02;99514.94;5111267;28;20279;-67
2022/02/28 01:16:40;;;;;;;10.07;6.60;;;;;;;-0.77;85.50;99517.53;5116267;28;20212;-67
2022/02/28 01:19:08;;;;;;;8.63;6.60;;;;;;;-0.93;86.11;99521.06;5116163;28;20745;-67
2022/02/28 01:21:34;;;;;;;9.33;6.57;;;;;;;-1.00;87.32;99519.34;5116529;28;20222;-67
2022/02/28 01:24:01;;;;;;;10.53;6.83;;;;;;;-0.96;87.32;99516.72;5110623;28;20215;-67
2022/02/28 01:26:27;;;;;;;9.97;6.87;;;;;;;-0.85;87.06;99517.59;5115998;28;20241;-68
2022/02/28 01:28:54;;;;;;;9.23;6.43;;;;;;;-0.88;86.63;99514.09;5116180;28;20215;-68
2022/02/28 01:31:20;;;;;;;9.83;7.20;;;;;;;-0.99;88.25;99521.91;5116206;28;20216;-68
2022/02/28 01:33:48;;;;;;;10.40;7.10;;;;;;;-0.98;88.35;99512.41;5115769;28;20221;-68
2022/02/28 01:36:14;;;;;;;11.03;6.80;;;;;;;-1.11;90.22;99506.38;5114435;28;20214;-68
2022/02/28 01:38:41;;;;;;;9.50;7.33;;;;;;;-1.03;89.31;99508.97;5116055;28;20218;-68
2022/02/28 01:41:08;;;;;;;8.30;6.37;;;;;;;-1.11;89.79;99506.38;5115913;28;20210;-68
2022/02/28 01:43:34;;;;;;;8.47;6.13;;;;;;;-1.17;90.90;99508.13;5116055;28;20228;-68
2022/02/28 01:46:01;;;;;;;8.20;6.50;;;;;;;-1.19;90.95;99502.94;5115876;28;20242;-68
2022/02/28 01:48:27;;;;;;;9.83;6.63;;;;;;;-1.23;92.30;99502.94;5115643;28;20215;-68
2022/02/28 01:50:55;;;;;;;11.63;7.53;;;;;;;-1.32;92.22;99502.94;5115803;28;20225;-67
2022/02/28 01:53:22;;;;;;;10.90;6.97;;;;;;;-1.44;93.39;99492.56;5115843;28;20219;-68
2022/02/28 01:55:49;;;;;;;9.93;7.23;;;;;;;-1.40;92.80;99491.72;5115637;28;20214;-67
2022/02/28 01:58:16;;;;;;;9.53;7.10;;;;;;;-1.45;92.64;99493.44;5115391;28;20210;-67
2022/02/28 02:00:42;;;;;;;9.77;6.80;;;;;;;-1.51;93.56;99493.44;5114414;28;20218;-67
2022/02/28 02:03:09;;;;;;;9.43;6.87;;;;;;;-1.56;94.22;99490.84;5113626;28;20298;-67
2022/02/28 02:05:35;;;;;;;13.60;7.50;;;;;;;-1.62;94.41;99489.97;5115513;28;20238;-67
2022/02/28 02:08:08;;;;;;;8.30;6.13;;;;;;;-1.56;94.32;99496.03;5115271;28;20224;-67
2022/02/28 02:10:34;;;;;;;9.87;7.47;;;;;;;-1.57;95.06;99491.72;5114507;28;20274;-67
2022/02/28 02:13:02;;;;;;;9.43;6.40;;;;;;;-1.63;95.82;99498.63;5115373;28;20540;-67
2022/02/28 02:15:28;;;;;;;12.57;7.33;;;;;;;-1.63;96.11;99503.81;5115211;28;20580;-67
2022/02/28 02:17:56;;;;;;;11.77;7.00;;;;;;;-1.55;95.96;99496.88;5115198;28;20218;-67
2022/02/28 02:20:34;;;;;;;10.97;6.90;;;;;;;-1.59;96.39;99500.34;5115289;28;20226;-67
2022/02/28 02:23:03;;;;;;;10.53;7.07;;;;;;;-1.64;96.37;99497.78;5115132;28;20225;-67
2022/02/28 02:25:29;;;;;;;13.20;6.90;;;;;;;-1.55;96.61;99499.47;5115059;28;20235;-67
2022/02/28 02:27:56;;;;;;;10.57;7.20;;;;;;;-1.46;94.66;99500.38;5113036;28;20211;-67
2022/02/28 02:30:23;;;;;;;10.20;6.63;;;;;;;-1.36;93.37;99502.06;5115235;28;20215;-67
2022/02/28 02:32:49;;;;;;;10.73;7.53;;;;;;;-1.31;92.53;99502.06;5114680;28;20214;-67
2022/02/28 02:35:16;;;;;;;10.87;7.30;;;;;;;-1.40;93.27;99508.16;5114873;28;20218;-67
2022/02/28 02:37:44;;;;;;;9.43;6.87;;;;;;;-1.30;92.60;99503.81;5114801;28;20218;-67
2022/02/28 02:40:12;;;;;;;10.40;7.33;;;;;;;-1.32;92.23;99495.16;5110491;28;20206;-67
2022/02/28 02:42:39;;;;;;;10.93;6.73;;;;;;;-1.31;92.32;99491.69;5114928;28;20564;-67
2022/02/28 02:45:06;;;;;;;10.53;6.83;;;;;;;-1.31;92.13;99491.69;5114545;28;20238;-67
2022/02/28 02:47:33;;;;;;;11.20;6.90;;;;;;;-1.34;92.14;99496.88;5114915;28;20207;-67
2022/02/28 02:49:59;;;;;;;11.07;7.30;;;;;;;-1.40;92.27;99496.91;5114798;28;20259;-68
2022/02/28 02:52:26;;;;;;;8.97;6.90;;;;;;;-1.53;94.33;99496.03;5114414;28;20207;-68
2022/02/28 02:54:53;;;;;;;10.63;7.30;;;;;;;-1.68;95.04;99500.34;5112938;28;20222;-69
2022/02/28 02:57:20;;;;;;;11.10;7.63;;;;;;;-1.76;96.53;99489.09;5114507;28;20215;-69
2022/02/28 02:59:49;;;;;;;11.27;7.13;;;;;;;-1.82;97.06;99496.88;5114109;28;20220;-69
2022/02/28 03:02:16;;;;;;;10.37;7.60;;;;;;;-1.77;97.13;99496.00;5114571;28;20210;-69
2022/02/28 03:04:42;;;;;;;10.87;7.93;;;;;;;-1.80;96.80;99497.72;5114376;28;20214;-69
2022/02/28 03:07:14;;;;;;;10.97;7.93;;;;;;;-1.84;97.65;99499.47;5114472;28;20218;-69
2022/02/28 03:09:41;;;;;;;11.70;7.40;;;;;;;-1.84;98.92;99502.03;5109767;28;20239;-68
2022/02/28 03:12:09;;;;;;;11.50;6.97;;;;;;;-1.90;99.96;99498.59;5113540;28;20209;-69
2022/02/28 03:14:36;;;;;;;11.97;7.83;;;;;;;-1.98;100.00;99505.47;5113882;28;20210;-69
2022/02/28 03:17:03;;;;;;;10.17;7.60;;;;;;;-2.08;100.00;99503.75;5114187;28;20299;-69
2022/02/28 03:19:29;;;;;;;12.17;7.50;;;;;;;-2.08;100.00;99503.75;5113594;28;20210;-68
2022/02/28 03:21:56;;;;;;;12.47;8.07;;;;;;;-2.07;100.00;99495.09;5112940;28;20214;-68
2022/02/28 03:24:22;;;;;;;11.73;7.80;;;;;;;-2.02;100.00;99504.59;5114154;28;20210;-68
2022/02/28 03:26:49;;;;;;;10.77;7.67;;;;;;;-1.99;100.00;99498.56;5113852;28;20236;-68
2022/02/28 03:29:17;;;;;;;10.13;7.67;;;;;;;-1.86;99.58;99510.69;5113983;28;20206;-68
2022/02/28 03:31:43;;;;;;;10.13;7.10;;;;;;;-1.84;99.32;99508.97;5113942;28;20219;-68
2022/02/28 03:34:10;;;;;;;12.90;8.47;;;;;;;-1.85;99.09;99507.25;5113497;28;20217;-68
2022/02/28 03:36:36;;;;;;;10.03;7.67;;;;;;;-1.83;99.04;99505.53;5113691;28;20214;-68
2022/02/28 03:39:03;;;;;;;11.17;7.00;;;;;;;-1.85;97.96;99512.44;5114000;28;20207;-68
2022/02/28 03:41:29;;;;;;;11.37;7.73;;;;;;;-1.92;99.41;99501.19;5113815;28;20211;-68
2022/02/28 03:43:56;;;;;;;10.30;7.37;;;;;;;-2.01;100.00;99502.91;5113825;28;20582;-68
2022/02/28 03:46:23;;;;;;;12.03;7.97;;;;;;;-2.08;100.00;99506.34;5111944;28;20246;-68
2022/02/28 03:48:50;;;;;;;11.87;7.20;;;;;;;-2.15;100.00;99512.38;5113374;28;20221;-69
2022/02/28 03:51:16;;;;;;;13.07;8.43;;;;;;;-2.17;100.00;99514.06;5113814;28;20640;-69
2022/02/28 03:53:43;;;;;;;10.90;7.80;;;;;;;-2.22;100.00;99513.19;5113766;28;20214;-69
2022/02/28 03:56:09;;;;;;;10.97;7.47;;;;;;;-2.35;100.00;99508.81;5113723;28;20209;-69
2022/02/28 03:58:38;;;;;;;11.10;7.93;;;;;;;-2.44;100.00;99501.03;5113175;28;20218;-69
2022/02/28 04:01:04;;;;;;;12.37;8.47;;;;;;;-2.43;100.00;99510.53;5113500;28;20212;-69
2022/02/28 04:03:32;;;;;;;13.73;7.57;;;;;;;-2.47;100.00;99501.03;5113330;28;20210;-69
2022/02/28 04:05:59;;;;;;;13.03;8.00;;;;;;;-2.50;100.00;99499.28;5107005;28;20234;-69
2022/02/28 04:08:25;;;;;;;11.17;7.70;;;;;;;-2.63;100.00;99496.66;5113536;28;20210;-69
2022/02/28 04:10:52;;;;;;;10.67;7.40;;;;;;;-2.73;100.00;99494.88;5113535;28;20249;-69
2022/02/28 04:13:18;;;;;;;12.53;7.97;;;;;;;-2.76;100.00;99494.88;5111892;28;20224;-68
2022/02/28 04:15:45;;;;;;;9.77;8.23;;;;;;;-2.66;100.00;99488.88;5113429;28;20206;-68
2022/02/28 04:18:11;;;;;;;12.67;8.57;;;;;;;-2.75;100.00;99494.00;5113523;28;20221;-67
2022/02/28 04:20:40;;;;;;;12.13;8.03;;;;;;;-2.81;100.00;99487.06;5113351;28;20213;-67
2022/02/28 04:23:06;;;;;;;12.77;8.43;;;;;;;-2.92;100.00;99493.06;5114523;28;20678;-67
2022/02/28 04:25:33;;;;;;;12.57;8.70;;;;;;;-2.91;100.00;99487.03;5117201;28;20237;-68
2022/02/28 04:27:59;;;;;;;13.13;9.43;;;;;;;-2.99;100.00;99491.31;5117484;28;20214;-68
2022/02/28 04:30:26;;;;;;;12.33;8.40;;;;;;;-2.86;100.00;99503.44;5117352;28;20221;-68
2022/02/28 04:32:52;;;;;;;13.20;8.87;;;;;;;-2.83;100.00;99498.25;5117346;28;20218;-68
2022/02/28 04:35:19;;;;;;;11.73;8.20;;;;;;;-2.68;100.00;99494.06;5117318;28;20214;-67
2022/02/28 04:37:47;;;;;;;11.40;7.80;;;;;;;-2.64;100.00;99484.59;5115475;28;20225;-67
2022/02/28 04:40:14;;;;;;;12.60;7.87;;;;;;;-2.69;100.00;99492.31;5117131;28;20222;-67
2022/02/28 04:42:41;;;;;;;14.73;8.77;;;;;;;-2.70;100.00;99506.09;5116881;28;20210;-67
2022/02/28 04:45:08;;;;;;;13.33;7.97;;;;;;;-2.62;100.00;99498.38;5114289;28;20213;-68
2022/02/28 04:47:35;;;;;;;13.90;9.30;;;;;;;-2.70;100.00;99502.66;5117076;28;20233;-68
2022/02/28 04:50:01;;;;;;;13.67;8.93;;;;;;;-2.65;100.00;99504.41;5117034;28;20206;-68
2022/02/28 04:52:28;;;;;;;12.77;8.50;;;;;;;-2.66;100.00;99502.69;5116966;28;20214;-68
2022/02/28 04:54:56;;;;;;;13.93;8.77;;;;;;;-2.63;100.00;99496.66;5116695;28;20213;-68
2022/02/28 04:57:22;;;;;;;12.83;8.40;;;;;;;-2.64;100.00;99497.53;5117039;28;20214;-68
2022/02/28 04:59:49;;;;;;;12.00;8.57;;;;;;;-2.70;100.00;99505.25;5112425;28;20214;-68
2022/02/28 05:02:15;;;;;;;15.10;9.53;;;;;;;-2.63;100.00;99507.00;5116528;28;20330;-68
2022/02/28 05:04:42;;;;;;;14.97;9.33;;;;;;;-2.59;100.00;99519.09;5115148;28;20214;-68
2022/02/28 05:07:08;;;;;;;12.50;8.60;;;;;;;-2.68;100.00;99521.66;5116414;28;20729;-68
2022/02/28 05:09:35;;;;;;;15.87;9.50;;;;;;;-2.74;100.00;99519.91;5116547;28;20240;-68
2022/02/28 05:12:03;;;;;;;14.30;9.87;;;;;;;-2.65;100.00;99519.06;5116657;28;20615;-68
2022/02/28 05:14:29;;;;;;;13.40;8.13;;;;;;;-2.73;100.00;99526.81;5116440;28;20214;-68
2022/02/28 05:16:56;;;;;;;11.97;9.00;;;;;;;-2.73;100.00;99521.63;5116534;28;20205;-68
2022/02/28 05:19:22;;;;;;;14.43;9.17;;;;;;;-2.74;100.00;99529.38;5116557;28;20247;-68
2022/02/28 05:21:49;;;;;;;11.17;8.53;;;;;;;-2.74;100.00;99526.78;5116327;28;20210;-68
2022/02/28 05:24:15;;;;;;;14.20;8.90;;;;;;;-2.85;100.00;99528.44;5116320;28;20210;-68
2022/02/28 05:26:42;;;;;;;13.50;9.03;;;;;;;-2.96;100.00;99524.94;5115964;28;20252;-68
2022/02/28 05:29:09;;;;;;;13.87;9.03;;;;;;;-2.95;100.00;99518.91;5116362;28;20207;-68
2022/02/28 05:31:36;;;;;;;12.27;8.57;;;;;;;-2.87;100.00;99527.59;5114533;28;20214;-68
2022/02/28 05:34:02;;;;;;;12.30;9.10;;;;;;;-2.84;100.00;99522.41;5115446;28;20221;-68
2022/02/28 05:36:29;;;;;;;13.17;9.30;;;;;;;-2.81;100.00;99532.78;5115641;28;20683;-68
2022/02/28 05:38:55;;;;;;;13.43;8.33;;;;;;;-2.82;100.00;99531.91;5115738;28;20225;-68
2022/02/28 05:41:22;;;;;;;13.67;8.83;;;;;;;-2.78;100.00;99532.78;5115961;28;20214;-68
2022/02/28 05:43:49;;;;;;;15.13;8.77;;;;;;;-2.84;100.00;99528.47;5115733;28;20670;-68
2022/02/28 05:46:17;;;;;;;14.13;9.43;;;;;;;-2.91;100.00;99523.25;5109771;28;20618;-68
2022/02/28 05:48:43;;;;;;;15.20;8.83;;;;;;;-2.89;100.00;99529.31;5115632;28;20221;-68
2022/02/28 05:51:10;;;;;;;16.53;9.53;;;;;;;-2.86;100.00;99525.00;5115643;28;20222;-68
2022/02/28 05:53:36;;;;;;;14.43;8.87;;;;;;;-2.78;100.00;99527.63;5115845;28;20233;-68
2022/02/28 05:56:03;;;;;;;14.57;9.00;;;;;;;-2.79;100.00;99531.06;5114101;28;20221;-68
2022/02/28 05:58:29;;;;;;;15.87;9.40;;;;;;;-2.86;100.00;99534.47;5115721;28;20217;-68
2022/02/28 06:00:56;;;;;;;14.53;9.37;;;;;;;-2.98;100.00;99529.22;5114446;28;20214;-68
2022/02/28 06:03:24;;;;;;;15.50;9.30;;;;;;;-3.00;100.00;99536.13;5115722;28;20214;-68
2022/02/28 06:05:50;;;;;;;14.77;9.80;;;;;;;-2.98;100.00;99537.00;5115557;28;20214;-68
2022/02/28 06:08:17;;;;;;;12.57;9.07;;;;;;;-3.09;100.00;99534.34;5115324;28;20225;-68
2022/02/28 06:10:43;;;;;;;14.17;9.63;;;;;;;-3.16;100.00;99539.47;5115207;28;20245;-68
2022/02/28 06:13:10;;;;;;;16.30;10.63;;;;;;;-3.20;100.00;99543.75;5115352;28;20225;-68
2022/02/28 06:15:41;;;;;;;14.23;9.23;;;;;;;-3.19;100.00;99547.22;5115401;28;20213;-68
2022/02/28 06:18:08;;;;;;;13.63;8.57;;;;;;;-3.14;100.00;99550.66;5115200;28;20206;-68
2022/02/28 06:20:35;;;;;;;14.10;8.37;;;;;;;-3.10;100.00;99550.72;5115362;28;20221;-68
2022/02/28 06:23:02;;;;;;;14.80;9.87;;;;;;;-3.01;100.00;99550.78;5113601;28;20214;-68
2022/02/28 06:25:28;;;;;;;13.67;8.67;;;;;;;-3.04;100.00;99555.94;5115131;28;20589;-68
2022/02/28 06:27:55;;;;;;;12.80;8.53;;;;;;;-3.08;100.00;99555.88;5115091;28;20253;-68
2022/02/28 06:30:21;;;;;;;14.67;8.60;;;;;;;-3.03;100.00;99555.06;5115340;28;20214;-68
2022/02/28 06:32:48;;;;;;;15.03;8.77;;;;;;;-2.95;100.00;99560.31;5109555;28;20225;-68
2022/02/28 06:35:14;;;;;;;11.77;9.00;;;;;;;-2.92;100.00;99560.31;5115068;28;20210;-68
2022/02/28 06:37:42;;;;;;;15.80;9.33;;;;;;;-2.84;100.00;99554.34;5114975;28;20213;-68
2022/02/28 06:40:10;;;;;;;12.90;8.63;;;;;;;-2.72;100.00;99558.69;5110612;28;20236;-68
2022/02/28 06:42:36;;;;;;;12.17;8.80;;;;;;;-2.68;100.00;99560.47;5114794;28;20210;-67
2022/02/28 06:45:04;;;;;;;12.87;8.73;;;;;;;-2.54;100.00;99561.38;5114793;28;20233;-67
2022/02/28 06:47:30;;;;;;;15.03;9.10;;;;;;;-2.46;100.00;99564.91;5112879;28;20237;-68
2022/02/28 06:49:57;;;;;;;14.93;9.73;;;;;;;-2.43;100.00;99570.06;5113754;28;20236;-67
2022/02/28 06:52:24;;;;;;;13.70;9.93;;;;;;;-2.44;100.00;99568.34;5114710;28;20214;-67
2022/02/28 06:54:53;;;;;;;14.13;8.83;;;;;;;-2.42;100.00;99567.50;5114677;28;20221;-67
2022/02/28 06:57:20;;;;;;;14.77;9.63;;;;;;;-2.36;100.00;99569.25;5114572;28;20210;-67
2022/02/28 06:59:46;;;;;;;15.67;9.73;;;;;;;-2.19;100.00;99572.78;5109724;28;20216;-67
2022/02/28 07:02:13;;;;;;;13.20;8.73;;;;;;;-2.08;100.00;99577.13;5114120;28;20683;-68
2022/02/28 07:04:39;;;;;;;13.90;9.07;;;;;;;-2.02;100.00;99581.47;5114270;28;20214;-68
2022/02/28 07:07:06;;;;;;;13.33;9.37;;;;;;;-1.91;100.00;99578.03;5114030;28;20722;-68
2022/02/28 07:09:34;;;;;;;15.33;9.60;;;;;;;-1.80;100.00;99578.06;5114269;28;20246;-68
2022/02/28 07:12:01;;;;;;;12.63;8.50;;;;;;;-1.70;100.00;99574.63;5114298;28;20215;-68
2022/02/28 07:14:28;;;;;;;14.13;9.00;;;;;;;-1.57;100.00;99576.38;5112462;28;20218;-68
2022/02/28 07:16:55;;;;;;;13.03;8.60;;;;;;;-1.44;99.68;99578.13;5113817;28;20213;-68
2022/02/28 07:19:21;;;;;;;14.20;9.40;;;;;;;-1.36;100.00;99577.28;5114170;28;20215;-68
2022/02/28 07:21:48;;;;;;;11.33;8.23;;;;;;;-1.29;99.10;99579.00;5114194;28;20288;-68
2022/02/28 07:24:15;;;;;;;13.63;9.07;;;;;;;-1.24;99.06;99574.69;5113858;28;20298;-68
2022/02/28 07:26:41;;;;;;;12.50;8.73;;;;;;;-1.11;97.76;99572.97;5113708;28;20237;-68
2022/02/28 07:29:09;;;;;;;15.37;9.17;;;;;;;-0.98;97.04;99574.69;5114101;28;20216;-68
2022/02/28 07:31:36;;;;;;;13.73;8.90;;;;;;;-0.98;96.83;99574.69;5113915;28;20214;-67
2022/02/28 07:34:03;;;;;;;10.87;8.40;;;;;;;-0.87;96.21;99575.53;5113531;28;20216;-68
2022/02/28 07:36:30;;;;;;;12.50;9.03;;;;;;;-0.81;94.28;99584.16;5113909;28;20219;-68
2022/02/28 07:38:56;;;;;;;11.47;8.10;;;;;;;-0.76;94.16;99584.16;5113874;28;20215;-68
2022/02/28 07:41:23;;;;;;;14.07;9.47;;;;;;;-0.70;94.33;99585.03;5112277;28;20210;-67
2022/02/28 07:43:50;;;;;;;13.77;9.23;;;;;;;-0.57;94.73;99580.69;5113692;28;20217;-67
2022/02/28 07:46:17;;;;;;;12.47;9.37;;;;;;;-0.49;94.69;99581.53;5113590;28;20215;-67
2022/02/28 07:48:44;;;;;;;13.63;9.63;;;;;;;-0.36;95.10;99588.41;5113342;28;20214;-67
2022/02/28 07:51:10;;;;;;;14.37;10.13;;;;;;;-0.22;95.47;99571.91;5113677;28;20216;-67
2022/02/28 07:53:37;;;;;;;15.97;10.63;;;;;;;-0.12;93.63;99590.03;5113443;28;20694;-66
2022/02/28 07:56:04;;;;;;;14.40;9.27;;;;;;;0.03;92.32;99590.00;5113556;28;20584;-67
2022/02/28 07:58:30;;;;;;;16.07;9.57;;;;;;;0.12;91.75;99589.94;5113043;28;20677;-67
2022/02/28 08:00:57;;;;;;;12.23;9.10;;;;;;;0.30;92.58;99583.75;5113728;28;20674;-66
2022/02/28 08:03:24;;;;;;;12.77;8.60;;;;;;;0.41;91.77;99590.66;5112708;28;20216;-68
2022/02/28 08:05:51;;;;;;;12.90;8.93;;;;;;;0.43;91.58;99586.28;5111775;28;20216;-69
2022/02/28 08:08:17;;;;;;;14.97;10.40;;;;;;;0.45;92.01;99589.72;5113438;28;20237;-68
2022/02/28 08:10:44;;;;;;;13.30;9.70;;;;;;;0.56;93.22;99592.28;5113500;28;20236;-68
2022/02/28 08:13:11;;;;;;;15.70;8.87;;;;;;;0.69;92.48;99584.38;5113452;28;20215;-68
2022/02/28 08:15:38;;;;;;;11.37;8.83;;;;;;;0.81;90.70;99586.88;5113290;28;20226;-67
2022/02/28 08:18:05;;;;;;;15.67;9.77;;;;;;;0.96;90.01;99599.78;5113012;28;20224;-67
2022/02/28 08:20:33;;;;;;;13.67;9.30;;;;;;;1.02;90.11;99604.94;5113322;28;20212;-67
2022/02/28 08:23:00;;;;;;;14.37;9.27;;;;;;;1.08;90.47;99594.50;5113306;28;20217;-67
2022/02/28 08:25:27;;;;;;;15.00;9.83;;;;;;;1.22;89.02;99600.44;5112951;28;20289;-67
2022/02/28 08:27:54;;;;;;;14.60;9.67;;;;;;;1.39;87.45;99600.25;5112806;28;20243;-67
2022/02/28 08:30:20;;;;;;;13.70;9.50;;;;;;;1.53;87.70;99609.69;5110596;28;20212;-67
2022/02/28 08:32:47;;;;;;;13.13;9.47;;;;;;;1.74;87.31;99604.25;5111523;28;20218;-66
2022/02/28 08:35:13;;;;;;;14.07;9.63;;;;;;;1.89;86.22;99606.69;5113092;28;20226;-66
2022/02/28 08:37:41;;;;;;;12.03;8.90;;;;;;;1.98;82.17;99618.75;5112085;28;20217;-66
2022/02/28 08:40:08;;;;;;;14.13;9.80;;;;;;;2.08;82.49;99617.75;5110415;28;20288;-65
2022/02/28 08:42:35;;;;;;;14.03;9.30;;;;;;;2.16;83.52;99613.31;5106779;28;20220;-65
2022/02/28 08:45:03;;;;;;;13.13;9.03;;;;;;;2.39;80.66;99609.50;5113107;28;20253;-65
2022/02/28 08:47:30;;;;;;;17.33;9.47;;;;;;;2.52;81.53;99615.44;5113013;28;20310;-65
2022/02/28 08:49:56;;;;;;;17.20;10.17;;;;;;;2.67;79.53;99608.25;5113047;28;20209;-64
2022/02/28 08:52:23;;;;;;;14.33;9.53;;;;;;;2.81;79.36;99608.06;5112760;28;20207;-65
2022/02/28 08:54:50;;;;;;;16.57;10.50;;;;;;;2.81;79.00;99611.50;5112855;28;20702;-64
2022/02/28 08:57:17;;;;;;;15.63;10.27;;;;;;;2.90;78.00;99611.38;5113207;28;20224;-64
2022/02/28 08:59:43;;;;;;;12.83;9.47;;;;;;;3.00;76.96;99607.72;5111110;28;20686;-65
2022/02/28 09:02:11;;;;;;;13.20;10.10;;;;;;;3.10;77.08;99605.81;5113130;28;20244;-65
2022/02/28 09:04:38;;;;;;;13.53;9.87;;;;;;;3.22;77.08;99603.88;5112745;28;20602;-64
2022/02/28 09:07:05;;;;;;;14.23;9.77;;;;;;;3.28;76.07;99603.78;5112916;28;20240;-64
2022/02/28 09:09:31;;;;;;;16.60;9.80;;;;;;;3.31;75.79;99606.31;5113182;28;20241;-65
2022/02/28 09:11:59;;;;;;;16.27;10.43;;;;;;;3.39;74.88;99601.84;5116458;28;20594;-65
2022/02/28 09:14:25;;;;;;;13.73;9.47;;;;;;;3.44;76.72;99599.16;5116589;28;20220;-65
2022/02/28 09:16:52;;;;;;;14.87;9.80;;;;;;;3.46;73.98;99607.81;5116329;28;20222;-65
2022/02/28 09:19:18;;;;;;;16.23;10.50;;;;;;;3.57;75.54;99612.00;5116445;28;20213;-65
2022/02/28 09:21:45;;;;;;;17.30;10.47;;;;;;;3.65;73.58;99607.47;5116340;28;20224;-65
2022/02/28 09:24:11;;;;;;;13.77;9.20;;;;;;;3.81;74.00;99603.69;5115407;28;20246;-64
2022/02/28 09:26:38;;;;;;;13.50;9.83;;;;;;;3.88;72.79;99609.66;5115282;28;20216;-64
2022/02/28 09:29:07;;;;;;;13.87;9.53;;;;;;;3.93;72.15;99598.22;5116032;28;20213;-64
2022/02/28 09:31:33;;;;;;;14.83;10.00;;;;;;;3.99;70.67;99592.00;5116254;28;20218;-65
2022/02/28 09:34:00;;;;;;;13.03;9.87;;;;;;;4.06;68.81;99589.22;5115834;28;20217;-64
2022/02/28 09:36:26;;;;;;;15.07;10.93;;;;;;;4.19;69.87;99592.44;5116049;28;20217;-64
2022/02/28 09:38:53;;;;;;;14.13;10.17;;;;;;;4.26;70.30;99584.44;5116111;28;20220;-65
2022/02/28 09:41:19;;;;;;;14.70;9.73;;;;;;;4.39;69.59;99580.66;5115911;28;20699;-65
2022/02/28 09:43:46;;;;;;;13.13;9.43;;;;;;;4.53;69.19;99583.81;5115966;28;20217;-65
2022/02/28 09:46:14;;;;;;;14.87;9.60;;;;;;;4.59;66.94;99586.31;5113967;28;20210;-66
2022/02/28 09:48:41;;;;;;;12.00;9.50;;;;;;;4.71;66.01;99587.81;5116002;28;20230;-66
2022/02/28 09:51:07;;;;;;;11.90;9.20;;;;;;;4.85;65.02;99590.97;5114343;28;20749;-65
2022/02/28 09:53:34;;;;;;;14.73;9.80;;;;;;;4.87;64.44;99582.16;5116055;28;20267;-65
2022/02/28 09:56:02;;;;;;;11.97;9.27;;;;;;;5.21;63.29;99585.72;5115859;28;20211;-65
2022/02/28 09:58:30;;;;;;;12.40;8.43;;;;;;;5.36;60.38;99589.69;5115684;28;20261;-64
2022/02/28 10:00:57;;;;;;;14.63;9.00;;;;;;;5.56;61.92;99596.13;5115774;28;20220;-64
2022/02/28 10:03:26;;;;;;;11.83;8.73;;;;;;;5.60;59.42;99594.28;5115837;28;20219;-65
2022/02/28 10:05:58;;;;;;;11.30;8.73;;;;;;;5.54;58.65;99590.09;5109588;28;20233;-65
2022/02/28 10:08:26;;;;;;;13.93;9.03;;;;;;;5.66;58.44;99592.38;5115496;28;20646;-64
2022/02/28 10:10:53;;;;;;;12.30;8.73;;;;;;;5.88;58.52;99596.19;5115742;28;20321;-65
2022/02/28 10:13:28;;;;;;;14.47;9.67;;;;;;;5.91;59.45;99601.34;5115173;28;20674;-65
2022/02/28 10:15:56;;;;;;;13.17;8.97;;;;;;;6.03;58.16;99601.00;5115126;28;20219;-65
2022/02/28 10:18:27;;;;;;;14.80;9.67;;;;;;;6.06;55.92;99595.69;5113670;28;20206;-64
2022/02/28 10:20:54;;;;;;;12.50;8.53;;;;;;;6.13;56.65;99591.97;5115261;28;20211;-64
2022/02/28 10:23:24;;;;;;;13.53;9.40;;;;;;;6.20;55.80;99593.53;5115294;28;20218;-64
2022/02/28 10:25:53;;;;;;;13.25;10.55;;;;;;;6.34;56.51;99588.72;5114411;28;20431;-65
2022/02/28 10:28:22;;;;;;;13.63;9.23;;;;;;;6.45;56.75;99584.03;5115430;28;20245;-65
2022/02/28 10:30:55;;;;;;;11.57;9.30;;;;;;;6.48;56.57;99583.91;5110227;28;20219;-65
2022/02/28 10:33:29;;;;;;;11.00;8.43;;;;;;;6.63;54.96;99577.34;5115170;28;20345;-65
2022/02/28 10:36:01;;;;;;;11.93;8.70;;;;;;;6.65;54.59;99571.13;5115063;28;20217;-67
2022/02/28 10:38:29;;;;;;;12.30;9.00;;;;;;;6.64;56.42;99569.41;5114735;28;20221;-66
2022/02/28 10:40:56;;;;;;;11.30;8.73;;;;;;;6.73;55.92;99571.75;5111444;28;20242;-66
2022/02/28 10:43:27;;;;;;;14.63;9.30;;;;;;;6.76;54.80;99566.41;5111772;28;20214;-66
2022/02/28 10:45:55;;;;;;;14.73;9.53;;;;;;;6.89;55.08;99569.53;5114643;28;20302;-66
2022/02/28 10:48:22;;;;;;;13.67;8.80;;;;;;;6.99;53.84;99565.69;5114720;28;20238;-67
2022/02/28 10:50:51;;;;;;;13.63;10.07;;;;;;;6.98;53.73;99564.84;5114407;28;20219;-67
2022/02/28 10:53:19;;;;;;;14.13;9.03;;;;;;;7.01;53.84;99563.88;5114613;28;20208;-67
2022/02/28 10:55:48;;;;;;;13.13;9.03;;;;;;;7.04;54.05;99562.00;5114537;28;20219;-67
2022/02/28 10:58:16;;;;;;;12.00;9.17;;;;;;;7.14;53.67;99566.03;5114594;28;20579;-66
2022/02/28 11:00:53;;;;;;;12.93;8.67;;;;;;;7.20;50.50;99557.94;5114149;28;20212;-67
2022/02/28 11:03:21;;;;;;;11.60;8.50;;;;;;;7.23;52.39;99561.34;5114619;28;20213;-67
2022/02/28 11:05:53;;;;;;;12.17;8.80;;;;;;;7.31;51.20;99563.72;5114546;28;20293;-69
2022/02/28 11:08:21;;;;;;;12.83;8.73;;;;;;;7.34;51.94;99558.38;5114427;28;20611;-68
2022/02/28 11:10:48;;;;;;;11.87;8.60;;;;;;;7.36;52.08;99551.28;5106714;28;20245;-67
2022/02/28 11:13:14;;;;;;;10.87;8.23;;;;;;;7.41;50.23;99551.97;5114294;28;20503;-67
2022/02/28 11:15:42;;;;;;;11.40;8.47;;;;;;;7.39;51.02;99545.91;5114020;28;20214;-68
2022/02/28 11:18:10;;;;;;;11.50;7.87;;;;;;;7.52;52.74;99541.94;5114288;28;20216;-70
2022/02/28 11:20:37;;;;;;;11.87;8.67;;;;;;;7.60;48.86;99539.91;5107717;28;20271;-67
2022/02/28 11:23:05;;;;;;;10.67;7.97;;;;;;;7.70;52.75;99539.53;5114174;28;20263;-67
2022/02/28 11:25:32;;;;;;;12.70;8.93;;;;;;;7.78;50.96;99540.09;5114282;28;20211;-68